sensor_id;sensor_type;location;lat;lon;timestamp;pressure;altitude;pressure_sealevel;temperature;humidity
24610;BME280;12758;47.890;11.694;2023-09-19T00:01:24;93587.66;;;16.91;100.00
24610;BME280;12758;47.890;11.694;2023-09-19T00:03:51;93581.03;;;16.92;100.00
24610;BME280;12758;47.890;11.694;2023-09-19T00:06:18;93576.41;;;16.99;100.00
24610;BME280;12758;47.890;11.694;2023-09-19T00:08:45;93578.75;;;16.67;100.00
24610;BME280;12758;47.890;11.694;2023-09-19T00:11:13;93578.13;;;16.47;100.00
24610;BME280;12758;47.890;11.694;2023-09-19T00:13:39;93582.47;;;16.52;100.00
24610;BME280;12758;47.890;11.694;2023-09-19T00:16:08;93584.53;;;16.62;100.00
24610;BME280;12758;47.890;11.694;2023-09-19T00:18:36;93586.00;;;16.22;100.00
24610;BME280;12758;47.890;11.694;2023-09-19T00:21:02;93582.09;;;16.23;100.00
24610;BME280;12758;47.890;11.694;2023-09-19T00:23:30;93575.25;;;16.10;100.00
24610;BME280;12758;47.890;11.694;2023-09-19T00:25:58;93582.59;;;16.33;100.00
24610;BME280;12758;47.890;11.694;2023-09-19T00:28:24;93580.91;;;16.51;100.00
24610;BME280;12758;47.890;11.694;2023-09-19T00:30:50;93583.22;;;16.49;100.00
24610;BME280;12758;47.890;11.694;2023-09-19T00:33:16;93573.41;;;16.18;100.00
24610;BME280;12758;47.890;11.694;2023-09-19T00:35:48;93582.00;;;16.16;100.00
24610;BME280;12758;47.890;11.694;2023-09-19T00:38:15;93589.06;;;15.91;100.00
24610;BME280;12758;47.890;11.694;2023-09-19T00:40:43;93581.31;;;16.23;100.00
24610;BME280;12758;47.890;11.694;2023-09-19T00:43:09;93586.00;;;16.22;100.00
24610;BME280;12758;47.890;11.694;2023-09-19T00:45:35;93581.34;;;16.26;100.00
24610;BME280;12758;47.890;11.694;2023-09-19T00:48:04;93580.41;;;15.89;100.00
24610;BME280;12758;47.890;11.694;2023-09-19T00:50:31;93575.47;;;15.98;100.00
24610;BME280;12758;47.890;11.694;2023-09-19T00:52:58;93579.03;;;16.28;100.00
24610;BME280;12758;47.890;11.694;2023-09-19T00:55:25;93576.84;;;15.84;100.00
24610;BME280;12758;47.890;11.694;2023-09-19T00:57:53;93580.50;;;15.69;100.00
24610;BME280;12758;47.890;11.694;2023-09-19T01:00:21;93583.00;;;15.78;100.00
24610;BME280;12758;47.890;11.694;2023-09-19T01:02:48;93581.56;;;15.88;100.00
24610;BME280;12758;47.890;11.694;2023-09-19T01:05:14;93584.84;;;15.97;100.00
24610;BME280;12758;47.890;11.694;2023-09-19T01:07:41;93592.91;;;16.43;100.00
24610;BME280;12758;47.890;11.694;2023-09-19T01:10:08;93588.25;;;16.17;100.00
24610;BME280;12758;47.890;11.694;2023-09-19T01:12:45;93598.13;;;16.21;100.00
24610;BME280;12758;47.890;11.694;2023-09-19T01:15:19;93598.25;;;16.62;100.00
24610;BME280;12758;47.890;11.694;2023-09-19T01:17:51;93602.25;;;16.68;100.00
24610;BME280;12758;47.890;11.694;2023-09-19T01:20:30;93609.34;;;16.73;100.00
24610;BME280;12758;47.890;11.694;2023-09-19T01:23:03;93610.00;;;16.63;100.00
24610;BME280;12758;47.890;11.694;2023-09-19T01:25:44;93612.88;;;16.73;100.00
24610;BME280;12758;47.890;11.694;2023-09-19T01:28:42;93616.47;;;16.77;100.00
24610;BME280;12758;47.890;11.694;2023-09-19T01:31:10;93617.03;;;16.60;100.00
24610;BME280;12758;47.890;11.694;2023-09-19T01:33:55;93626.38;;;16.86;100.00
24610;BME280;12758;47.890;11.694;2023-09-19T01:36:31;93626.34;;;17.19;100.00
24610;BME280;12758;47.890;11.694;2023-09-19T01:39:01;93631.03;;;17.15;100.00
24610;BME280;12758;47.890;11.694;2023-09-19T01:41:41;93655.97;;;17.03;100.00
24610;BME280;12758;47.890;11.694;2023-09-19T01:44:13;93649.91;;;16.60;100.00
24610;BME280;12758;47.890;11.694;2023-09-19T01:46:44;93665.66;;;16.67;100.00
24610;BME280;12758;47.890;11.694;2023-09-19T01:49:18;93667.63;;;16.40;100.00
24610;BME280;12758;47.890;11.694;2023-09-19T01:51:52;93656.66;;;16.40;100.00
24610;BME280;12758;47.890;11.694;2023-09-19T01:54:24;93651.78;;;16.56;100.00
24610;BME280;12758;47.890;11.694;2023-09-19T01:56:57;93648.88;;;16.42;100.00
24610;BME280;12758;47.890;11.694;2023-09-19T01:59:34;93646.47;;;16.40;100.00
24610;BME280;12758;47.890;11.694;2023-09-19T02:02:02;93638.03;;;16.52;100.00
24610;BME280;12758;47.890;11.694;2023-09-19T02:04:28;93643.78;;;16.70;100.00
24610;BME280;12758;47.890;11.694;2023-09-19T02:06:55;93647.63;;;16.66;100.00
24610;BME280;12758;47.890;11.694;2023-09-19T02:09:22;93642.00;;;16.55;100.00
24610;BME280;12758;47.890;11.694;2023-09-19T02:11:48;93644.13;;;16.39;100.00
24610;BME280;12758;47.890;11.694;2023-09-19T02:14:17;93651.13;;;16.93;100.00
24610;BME280;12758;47.890;11.694;2023-09-19T02:16:45;93652.63;;;17.20;100.00
24610;BME280;12758;47.890;11.694;2023-09-19T02:19:12;93648.38;;;17.27;100.00
24610;BME280;12758;47.890;11.694;2023-09-19T02:21:38;93657.94;;;17.40;100.00
24610;BME280;12758;47.890;11.694;2023-09-19T02:24:06;93658.09;;;17.54;100.00
24610;BME280;12758;47.890;11.694;2023-09-19T02:26:34;93654.94;;;17.56;100.00
24610;BME280;12758;47.890;11.694;2023-09-19T02:29:02;93660.56;;;17.66;100.00
24610;BME280;12758;47.890;11.694;2023-09-19T02:31:30;93666.81;;;17.63;100.00
24610;BME280;12758;47.890;11.694;2023-09-19T02:33:56;93660.56;;;17.66;100.00
24610;BME280;12758;47.890;11.694;2023-09-19T02:36:23;93664.53;;;17.73;100.00
24610;BME280;12758;47.890;11.694;2023-09-19T02:38:49;93659.81;;;17.69;100.00
24610;BME280;12758;47.890;11.694;2023-09-19T02:41:15;93665.31;;;17.73;100.00
24610;BME280;12758;47.890;11.694;2023-09-19T02:43:41;93665.38;;;17.77;100.00
24610;BME280;12758;47.890;11.694;2023-09-19T02:46:08;93667.69;;;17.75;100.00
24610;BME280;12758;47.890;11.694;2023-09-19T02:48:34;93673.31;;;17.85;100.00
24610;BME280;12758;47.890;11.694;2023-09-19T02:51:01;93665.50;;;17.91;100.00
24610;BME280;12758;47.890;11.694;2023-09-19T02:53:29;93664.72;;;17.90;100.00
24610;BME280;12758;47.890;11.694;2023-09-19T02:55:56;93663.97;;;17.93;100.00
24610;BME280;12758;47.890;11.694;2023-09-19T02:58:22;93675.66;;;17.87;100.00
24610;BME280;12758;47.890;11.694;2023-09-19T03:00:50;93674.91;;;17.90;100.00
24610;BME280;12758;47.890;11.694;2023-09-19T03:03:16;93673.28;;;17.82;100.00
24610;BME280;12758;47.890;11.694;2023-09-19T03:05:43;93676.84;;;17.86;100.00
24610;BME280;12758;47.890;11.694;2023-09-19T03:08:12;93667.06;;;17.88;100.00
24610;BME280;12758;47.890;11.694;2023-09-19T03:10:40;93663.88;;;17.83;100.00
24610;BME280;12758;47.890;11.694;2023-09-19T03:13:07;93667.38;;;17.80;100.00
24610;BME280;12758;47.890;11.694;2023-09-19T03:15:35;93662.63;;;17.77;100.00
24610;BME280;12758;47.890;11.694;2023-09-19T03:18:03;93666.88;;;17.70;100.00
24610;BME280;12758;47.890;11.694;2023-09-19T03:20:29;93671.47;;;17.59;100.00
24610;BME280;12758;47.890;11.694;2023-09-19T03:22:55;93667.09;;;17.55;100.00
24610;BME280;12758;47.890;11.694;2023-09-19T03:25:22;93667.28;;;17.35;100.00
24610;BME280;12758;47.890;11.694;2023-09-19T03:27:50;93657.94;;;17.40;100.00
24610;BME280;12758;47.890;11.694;2023-09-19T03:30:16;93662.03;;;17.19;100.00
24610;BME280;12758;47.890;11.694;2023-09-19T03:32:45;93656.06;;;17.14;100.00
24610;BME280;12758;47.890;11.694;2023-09-19T03:35:12;93659.88;;;17.02;100.00
24610;BME280;12758;47.890;11.694;2023-09-19T03:37:40;93658.22;;;16.97;100.00
24610;BME280;12758;47.890;11.694;2023-09-19T03:40:07;93661.28;;;16.89;100.00
24610;BME280;12758;47.890;11.694;2023-09-19T03:42:33;93661.50;;;16.50;100.00
24610;BME280;12758;47.890;11.694;2023-09-19T03:45:02;93655.91;;;16.69;100.00
24610;BME280;12758;47.890;11.694;2023-09-19T03:47:28;93653.09;;;16.66;100.00
24610;BME280;12758;47.890;11.694;2023-09-19T03:49:54;93651.31;;;16.47;100.00
24610;BME280;12758;47.890;11.694;2023-09-19T03:52:20;93650.53;;;16.76;100.00
24610;BME280;12758;47.890;11.694;2023-09-19T03:54:46;93654.66;;;16.63;100.00
24610;BME280;12758;47.890;11.694;2023-09-19T03:57:12;93655.28;;;16.53;100.00
24610;BME280;12758;47.890;11.694;2023-09-19T03:59:41;93656.44;;;16.79;100.00
24610;BME280;12758;47.890;11.694;2023-09-19T04:02:08;93656.53;;;16.59;100.00
24610;BME280;12758;47.890;11.694;2023-09-19T04:04:41;93668.41;;;16.97;100.00
24610;BME280;12758;47.890;11.694;2023-09-19T04:07:07;93673.16;;;17.00;100.00
24610;BME280;12758;47.890;11.694;2023-09-19T04:09:33;93666.25;;;17.13;100.00
24610;BME280;12758;47.890;11.694;2023-09-19T04:12:00;93666.34;;;16.87;100.00
24610;BME280;12758;47.890;11.694;2023-09-19T04:14:26;93662.66;;;16.75;100.00
24610;BME280;12758;47.890;11.694;2023-09-19T04:16:52;93676.16;;;16.91;100.00
24610;BME280;12758;47.890;11.694;2023-09-19T04:19:19;93667.72;;;17.04;100.00
24610;BME280;12758;47.890;11.694;2023-09-19T04:21:47;93674.16;;;17.18;100.00
24610;BME280;12758;47.890;11.694;2023-09-19T04:24:14;93683.38;;;17.03;100.00
24610;BME280;12758;47.890;11.694;2023-09-19T04:26:40;93684.47;;;17.29;100.00
24610;BME280;12758;47.890;11.694;2023-09-19T04:29:06;93685.28;;;16.99;100.00
24610;BME280;12758;47.890;11.694;2023-09-19T04:31:32;93685.13;;;17.18;100.00
24610;BME280;12758;47.890;11.694;2023-09-19T04:33:58;93698.16;;;16.95;100.00
24610;BME280;12758;47.890;11.694;2023-09-19T04:36:25;93690.19;;;17.16;100.00
24610;BME280;12758;47.890;11.694;2023-09-19T04:38:51;93696.84;;;17.15;100.00
24610;BME280;12758;47.890;11.694;2023-09-19T04:41:19;93695.75;;;16.90;100.00
24610;BME280;12758;47.890;11.694;2023-09-19T04:43:45;93699.88;;;16.76;100.00
24610;BME280;12758;47.890;11.694;2023-09-19T04:46:11;93696.31;;;16.23;100.00
24610;BME280;12758;47.890;11.694;2023-09-19T04:48:39;93699.63;;;16.62;100.00
24610;BME280;12758;47.890;11.694;2023-09-19T04:51:05;93707.75;;;16.55;100.00
24610;BME280;12758;47.890;11.694;2023-09-19T04:53:32;93712.81;;;16.26;100.00
24610;BME280;12758;47.890;11.694;2023-09-19T04:55:58;93713.97;;;16.52;100.00
24610;BME280;12758;47.890;11.694;2023-09-19T04:58:24;93716.03;;;16.59;100.00
24610;BME280;12758;47.890;11.694;2023-09-19T05:00:50;93723.94;;;16.37;100.00
24610;BME280;12758;47.890;11.694;2023-09-19T05:03:16;93733.16;;;16.25;100.00
24610;BME280;12758;47.890;11.694;2023-09-19T05:05:43;93731.06;;;16.42;100.00
24610;BME280;12758;47.890;11.694;2023-09-19T05:08:09;93734.72;;;16.26;100.00
24610;BME280;12758;47.890;11.694;2023-09-19T05:10:35;93744.78;;;16.19;100.00
24610;BME280;12758;47.890;11.694;2023-09-19T05:13:03;93735.47;;;16.23;100.00
24610;BME280;12758;47.890;11.694;2023-09-19T05:15:30;93737.53;;;16.07;100.00
24610;BME280;12758;47.890;11.694;2023-09-19T05:17:56;93747.31;;;16.08;100.00
24610;BME280;12758;47.890;11.694;2023-09-19T05:20:22;93750.78;;;16.05;100.00
24610;BME280;12758;47.890;11.694;2023-09-19T05:22:58;93755.75;;;16.19;100.00
24610;BME280;12758;47.890;11.694;2023-09-19T05:25:27;93756.25;;;16.05;100.00
24610;BME280;12758;47.890;11.694;2023-09-19T05:27:56;93753.84;;;16.00;100.00
24610;BME280;12758;47.890;11.694;2023-09-19T05:30:23;93751.53;;;16.02;100.00
24610;BME280;12758;47.890;11.694;2023-09-19T05:32:49;93760.50;;;15.99;100.00
24610;BME280;12758;47.890;11.694;2023-09-19T05:35:16;93756.59;;;16.00;100.00
24610;BME280;12758;47.890;11.694;2023-09-19T05:37:42;93761.38;;;16.29;100.00
24610;BME280;12758;47.890;11.694;2023-09-19T05:40:10;93762.16;;;16.30;100.00
24610;BME280;12758;47.890;11.694;2023-09-19T05:42:37;93766.19;;;16.13;100.00
24610;BME280;12758;47.890;11.694;2023-09-19T05:45:06;93769.91;;;16.24;100.00
24610;BME280;12758;47.890;11.694;2023-09-19T05:47:32;93764.44;;;16.24;100.00
24610;BME280;12758;47.890;11.694;2023-09-19T05:49:58;93762.13;;;16.26;100.00
24610;BME280;12758;47.890;11.694;2023-09-19T05:52:25;93774.41;;;16.13;100.00
24610;BME280;12758;47.890;11.694;2023-09-19T05:54:51;93770.03;;;16.32;100.00
24610;BME280;12758;47.890;11.694;2023-09-19T05:57:17;93775.56;;;16.35;100.00
24610;BME280;12758;47.890;11.694;2023-09-19T05:59:43;93777.19;;;16.40;100.00
24610;BME280;12758;47.890;11.694;2023-09-19T06:02:10;93782.44;;;16.48;100.00
24610;BME280;12758;47.890;11.694;2023-09-19T06:04:37;93785.66;;;16.54;100.00
24610;BME280;12758;47.890;11.694;2023-09-19T06:07:06;93776.03;;;16.64;100.00
24610;BME280;12758;47.890;11.694;2023-09-19T06:09:32;93789.25;;;16.58;100.00
24610;BME280;12758;47.890;11.694;2023-09-19T06:11:59;93784.41;;;16.74;100.00
24610;BME280;12758;47.890;11.694;2023-09-19T06:14:28;93786.19;;;16.86;100.00
24610;BME280;12758;47.890;11.694;2023-09-19T06:16:54;93785.78;;;16.88;100.00
24610;BME280;12758;47.890;11.694;2023-09-19T06:19:21;93790.00;;;16.82;100.00
24610;BME280;12758;47.890;11.694;2023-09-19T06:21:48;93785.06;;;16.91;100.00
24610;BME280;12758;47.890;11.694;2023-09-19T06:24:14;93794.13;;;16.95;100.00
24610;BME280;12758;47.890;11.694;2023-09-19T06:26:40;93796.03;;;16.91;100.00
24610;BME280;12758;47.890;11.694;2023-09-19T06:29:06;93793.28;;;16.91;100.00
24610;BME280;12758;47.890;11.694;2023-09-19T06:31:33;93807.94;;;17.02;100.00
24610;BME280;12758;47.890;11.694;2023-09-19T06:34:00;93803.31;;;17.06;100.00
24610;BME280;12758;47.890;11.694;2023-09-19T06:36:26;93807.31;;;17.12;100.00
24610;BME280;12758;47.890;11.694;2023-09-19T06:38:52;93810.25;;;17.00;100.00
24610;BME280;12758;47.890;11.694;2023-09-19T06:41:18;93804.88;;;17.07;100.00
24610;BME280;12758;47.890;11.694;2023-09-19T06:43:46;93807.31;;;17.12;100.00
24610;BME280;12758;47.890;11.694;2023-09-19T06:46:12;93816.72;;;17.11;100.00
24610;BME280;12758;47.890;11.694;2023-09-19T06:48:39;93811.91;;;17.05;100.00
24610;BME280;12758;47.890;11.694;2023-09-19T06:51:05;93811.84;;;17.01;100.00
24610;BME280;12758;47.890;11.694;2023-09-19T06:53:32;93812.56;;;16.98;100.00
24610;BME280;12758;47.890;11.694;2023-09-19T06:55:58;93813.09;;;16.81;100.00
24610;BME280;12758;47.890;11.694;2023-09-19T06:58:24;93813.72;;;16.70;100.00
24610;BME280;12758;47.890;11.694;2023-09-19T07:00:50;93814.63;;;16.78;100.00
24610;BME280;12758;47.890;11.694;2023-09-19T07:03:16;93824.19;;;16.88;100.00
24610;BME280;12758;47.890;11.694;2023-09-19T07:05:44;93819.31;;;16.77;100.00
24610;BME280;12758;47.890;11.694;2023-09-19T07:08:11;93821.63;;;16.75;100.00
24610;BME280;12758;47.890;11.694;2023-09-19T07:10:38;93824.06;;;16.81;100.00
24610;BME280;12758;47.890;11.694;2023-09-19T07:13:06;93827.81;;;16.72;100.00
24610;BME280;12758;47.890;11.694;2023-09-19T07:15:37;93830.03;;;16.63;100.00
24610;BME280;12758;47.890;11.694;2023-09-19T07:18:05;93836.84;;;16.50;100.00
24610;BME280;12758;47.890;11.694;2023-09-19T07:20:32;93830.13;;;16.44;100.00
24610;BME280;12758;47.890;11.694;2023-09-19T07:23:00;93832.84;;;16.44;100.00
24610;BME280;12758;47.890;11.694;2023-09-19T07:25:26;93837.47;;;16.40;100.00
24610;BME280;12758;47.890;11.694;2023-09-19T07:27:54;93838.41;;;16.47;100.00
24610;BME280;12758;47.890;11.694;2023-09-19T07:30:20;93832.91;;;16.47;100.00
24610;BME280;12758;47.890;11.694;2023-09-19T07:32:47;93833.53;;;16.60;100.00
24610;BME280;12758;47.890;11.694;2023-09-19T07:35:13;93839.53;;;16.69;100.00
24610;BME280;12758;47.890;11.694;2023-09-19T07:37:40;93840.28;;;16.66;100.00
24610;BME280;12758;47.890;11.694;2023-09-19T07:40:06;93846.16;;;16.68;100.00
24610;BME280;12758;47.890;11.694;2023-09-19T07:42:34;93838.69;;;16.65;100.00
24610;BME280;12758;47.890;11.694;2023-09-19T07:45:03;93844.25;;;16.72;100.00
24610;BME280;12758;47.890;11.694;2023-09-19T07:47:29;93843.44;;;16.68;100.00
24610;BME280;12758;47.890;11.694;2023-09-19T07:49:57;93844.09;;;16.85;100.00
24610;BME280;12758;47.890;11.694;2023-09-19T07:52:24;93851.53;;;16.84;100.00
24610;BME280;12758;47.890;11.694;2023-09-19T07:54:50;93848.66;;;17.00;100.00
24610;BME280;12758;47.890;11.694;2023-09-19T07:57:16;93855.56;;;16.90;100.00
24610;BME280;12758;47.890;11.694;2023-09-19T07:59:42;93856.16;;;17.03;100.00
24610;BME280;12758;47.890;11.694;2023-09-19T08:02:09;93851.50;;;16.81;100.00
24610;BME280;12758;47.890;11.694;2023-09-19T08:04:41;93849.97;;;16.83;100.00
24610;BME280;12758;47.890;11.694;2023-09-19T08:07:07;93849.72;;;16.92;100.00
24610;BME280;12758;47.890;11.694;2023-09-19T08:09:34;93850.66;;;16.76;100.00
24610;BME280;12758;47.890;11.694;2023-09-19T08:12:00;93853.78;;;16.79;100.00
24610;BME280;12758;47.890;11.694;2023-09-19T08:14:30;93853.25;;;16.69;100.00
24610;BME280;12758;47.890;11.694;2023-09-19T08:16:57;93850.66;;;16.76;100.00
24610;BME280;12758;47.890;11.694;2023-09-19T08:19:24;93857.19;;;16.95;100.00
24610;BME280;12758;47.890;11.694;2023-09-19T08:21:55;93860.34;;;16.97;100.00
24610;BME280;12758;47.890;11.694;2023-09-19T08:24:21;93859.00;;;17.10;100.00
24610;BME280;12758;47.890;11.694;2023-09-19T08:26:47;93854.25;;;17.07;100.00
24610;BME280;12758;47.890;11.694;2023-09-19T08:29:16;93854.66;;;17.09;100.00
24610;BME280;12758;47.890;11.694;2023-09-19T08:31:43;93848.97;;;17.21;100.00
24610;BME280;12758;47.890;11.694;2023-09-19T08:34:09;93862.25;;;17.19;100.00
24610;BME280;12758;47.890;11.694;2023-09-19T08:36:35;93857.00;;;17.34;100.00
24610;BME280;12758;47.890;11.694;2023-09-19T08:39:03;93855.50;;;17.40;100.00
24610;BME280;12758;47.890;11.694;2023-09-19T08:41:29;93862.97;;;17.43;100.00
24610;BME280;12758;47.890;11.694;2023-09-19T08:43:58;93860.47;;;17.61;100.00
24610;BME280;12758;47.890;11.694;2023-09-19T08:46:27;93861.25;;;17.61;100.00
24610;BME280;12758;47.890;11.694;2023-09-19T08:49:03;93860.56;;;17.68;100.00
24610;BME280;12758;47.890;11.694;2023-09-19T08:51:36;93863.69;;;17.66;100.00
24610;BME280;12758;47.890;11.694;2023-09-19T08:54:07;93866.00;;;17.64;100.00
24610;BME280;12758;47.890;11.694;2023-09-19T08:56:33;93867.53;;;17.62;100.00
24610;BME280;12758;47.890;11.694;2023-09-19T08:59:01;93866.81;;;17.65;100.00
24610;BME280;12758;47.890;11.694;2023-09-19T09:01:28;93861.63;;;17.56;100.00
24610;BME280;12758;47.890;11.694;2023-09-19T09:03:55;93871.47;;;17.61;100.00
24610;BME280;12758;47.890;11.694;2023-09-19T09:06:23;93869.94;;;17.63;100.00
24610;BME280;12758;47.890;11.694;2023-09-19T09:08:50;93875.63;;;17.78;100.00
24610;BME280;12758;47.890;11.694;2023-09-19T09:11:17;93886.50;;;17.70;100.00
24610;BME280;12758;47.890;11.694;2023-09-19T09:13:44;93891.56;;;17.68;100.00
24610;BME280;12758;47.890;11.694;2023-09-19T09:16:10;93884.38;;;17.87;100.00
24610;BME280;12758;47.890;11.694;2023-09-19T09:18:38;93884.13;;;17.99;100.00
24610;BME280;12758;47.890;11.694;2023-09-19T09:21:04;93889.94;;;17.94;100.00
24610;BME280;12758;47.890;11.694;2023-09-19T09:23:30;93885.69;;;18.00;100.00
24610;BME280;12758;47.890;11.694;2023-09-19T09:25:58;93885.66;;;17.97;100.00
24610;BME280;12758;47.890;11.694;2023-09-19T09:28:30;93901.78;;;17.98;100.00
24610;BME280;12758;47.890;11.694;2023-09-19T09:30:56;93891.53;;;17.95;100.00
24610;BME280;12758;47.890;11.694;2023-09-19T09:33:24;93891.59;;;17.99;100.00
24610;BME280;12758;47.890;11.694;2023-09-19T09:35:51;93898.19;;;17.94;100.00
24610;BME280;12758;47.890;11.694;2023-09-19T09:38:23;93892.28;;;17.92;100.00
24610;BME280;12758;47.890;11.694;2023-09-19T09:40:53;93891.53;;;17.95;100.00
24610;BME280;12758;47.890;11.694;2023-09-19T09:43:26;93890.88;;;18.05;100.00
24610;BME280;12758;47.890;11.694;2023-09-19T09:46:07;93891.75;;;18.13;100.00
24610;BME280;12758;47.890;11.694;2023-09-19T09:48:44;93887.88;;;18.18;100.00
24610;BME280;12758;47.890;11.694;2023-09-19T09:51:28;93882.06;;;18.26;100.00
24610;BME280;12758;47.890;11.694;2023-09-19T09:54:11;93885.53;;;18.20;100.00
24610;BME280;12758;47.890;11.694;2023-09-19T09:56:52;93902.13;;;18.27;100.00
24610;BME280;12758;47.890;11.694;2023-09-19T09:59:18;93897.28;;;18.16;100.00
24610;BME280;12758;47.890;11.694;2023-09-19T10:01:49;93893.97;;;18.04;100.00
24610;BME280;12758;47.890;11.694;2023-09-19T10:04:27;93897.94;;;18.06;100.00
24610;BME280;12758;47.890;11.694;2023-09-19T10:06:54;93896.34;;;18.02;100.00
24610;BME280;12758;47.890;11.694;2023-09-19T10:09:20;93889.31;;;18.04;100.00
24610;BME280;12758;47.890;11.694;2023-09-19T10:12:03;93898.91;;;18.21;100.00
24610;BME280;12758;47.890;11.694;2023-09-19T10:14:33;93897.75;;;18.22;100.00
24610;BME280;12758;47.890;11.694;2023-09-19T10:17:00;93900.44;;;18.19;100.00
24610;BME280;12758;47.890;11.694;2023-09-19T10:19:30;93907.69;;;18.34;100.00
24610;BME280;12758;47.890;11.694;2023-09-19T10:22:02;93901.63;;;18.18;100.00
24610;BME280;12758;47.890;11.694;2023-09-19T10:24:30;93914.50;;;18.13;100.00
24610;BME280;12758;47.890;11.694;2023-09-19T10:26:59;93911.41;;;18.15;100.00
24610;BME280;12758;47.890;11.694;2023-09-19T10:29:25;93902.22;;;18.37;100.00
24610;BME280;12758;47.890;11.694;2023-09-19T10:31:55;93911.38;;;18.49;100.00
24610;BME280;12758;47.890;11.694;2023-09-19T10:34:24;93911.31;;;18.79;100.00
24610;BME280;12758;47.890;11.694;2023-09-19T10:36:51;93917.69;;;18.90;100.00
24610;BME280;12758;47.890;11.694;2023-09-19T10:39:18;93911.66;;;19.18;100.00
24610;BME280;12758;47.890;11.694;2023-09-19T10:41:47;93923.50;;;19.26;100.00
24610;BME280;12758;47.890;11.694;2023-09-19T10:44:21;93917.91;;;19.15;100.00
24610;BME280;12758;47.890;11.694;2023-09-19T10:46:48;93915.09;;;19.08;100.00
24610;BME280;12758;47.890;11.694;2023-09-19T10:49:14;93918.41;;;18.83;100.00
24610;BME280;12758;47.890;11.694;2023-09-19T10:51:41;93925.47;;;18.81;100.00
24610;BME280;12758;47.890;11.694;2023-09-19T10:54:11;93919.97;;;18.81;100.00
24610;BME280;12758;47.890;11.694;2023-09-19T10:56:44;93911.56;;;19.07;100.00
24610;BME280;12758;47.890;11.694;2023-09-19T10:59:15;93917.47;;;19.09;100.00
24610;BME280;12758;47.890;11.694;2023-09-19T11:01:44;93918.03;;;19.29;100.00
24610;BME280;12758;47.890;11.694;2023-09-19T11:04:26;93916.53;;;19.39;100.00
24610;BME280;12758;47.890;11.694;2023-09-19T11:07:04;93927.16;;;19.44;100.00
24610;BME280;12758;47.890;11.694;2023-09-19T11:09:43;93925.06;;;19.75;100.00
24610;BME280;12758;47.890;11.694;2023-09-19T11:12:11;93910.91;;;19.80;100.00
24610;BME280;12758;47.890;11.694;2023-09-19T11:14:41;93919.81;;;19.59;100.00
24610;BME280;12758;47.890;11.694;2023-09-19T11:17:41;93922.84;;;19.43;100.00
24610;BME280;12758;47.890;11.694;2023-09-19T11:20:20;93917.19;;;19.25;100.00
24610;BME280;12758;47.890;11.694;2023-09-19T11:23:18;93920.69;;;19.19;100.00
24610;BME280;12758;47.890;11.694;2023-09-19T11:25:49;93923.53;;;19.29;100.00
24610;BME280;12758;47.890;11.694;2023-09-19T11:28:32;93921.88;;;19.18;100.00
24610;BME280;12758;47.890;11.694;2023-09-19T11:30:58;93922.56;;;19.04;100.00
24610;BME280;12758;47.890;11.694;2023-09-19T11:33:25;93915.03;;;18.97;100.00
24610;BME280;12758;47.890;11.694;2023-09-19T11:36:01;93923.22;;;18.94;100.00
24610;BME280;12758;47.890;11.694;2023-09-19T11:39:02;93919.34;;;18.98;100.00
24610;BME280;12758;47.890;11.694;2023-09-19T11:41:38;93928.00;;;19.00;100.00
24610;BME280;12758;47.890;11.694;2023-09-19T11:44:33;93916.94;;;18.93;100.00
24610;BME280;12758;47.890;11.694;2023-09-19T11:47:00;93924.75;;;18.88;100.00
24610;BME280;12758;47.890;11.694;2023-09-19T11:49:29;93913.78;;;18.91;100.00
24610;BME280;12758;47.890;11.694;2023-09-19T11:51:58;93916.31;;;19.11;100.00
24610;BME280;12758;47.890;11.694;2023-09-19T11:54:31;93921.81;;;19.11;100.00
24610;BME280;12758;47.890;11.694;2023-09-19T11:56:58;93919.38;;;19.02;100.00
24610;BME280;12758;47.890;11.694;2023-09-19T11:59:25;93911.91;;;19.02;100.00
24610;BME280;12758;47.890;11.694;2023-09-19T12:01:54;93912.38;;;19.12;100.00
24610;BME280;12758;47.890;11.694;2023-09-19T12:04:33;93912.88;;;19.24;100.00
24610;BME280;12758;47.890;11.694;2023-09-19T12:07:01;93918.09;;;19.40;100.00
24610;BME280;12758;47.890;11.694;2023-09-19T12:09:27;93912.59;;;19.40;100.00
24610;BME280;12758;47.890;11.694;2023-09-19T12:11:54;93907.06;;;19.33;100.00
24610;BME280;12758;47.890;11.694;2023-09-19T12:14:24;93915.69;;;19.35;100.00
24610;BME280;12758;47.890;11.694;2023-09-19T12:16:53;93911.28;;;19.75;100.00
24610;BME280;12758;47.890;11.694;2023-09-19T12:19:21;93901.72;;;19.62;100.00
24610;BME280;12758;47.890;11.694;2023-09-19T12:21:58;93911.25;;;19.68;100.00
24610;BME280;12758;47.890;11.694;2023-09-19T12:24:26;93905.31;;;19.66;100.00
24610;BME280;12758;47.890;11.694;2023-09-19T12:27:00;93906.88;;;19.67;100.00
24610;BME280;12758;47.890;11.694;2023-09-19T12:29:30;93911.16;;;19.61;100.00
24610;BME280;12758;47.890;11.694;2023-09-19T12:31:57;93916.78;;;19.75;100.00
24610;BME280;12758;47.890;11.694;2023-09-19T12:34:24;93920.69;;;19.70;100.00
24610;BME280;12758;47.890;11.694;2023-09-19T12:37:06;93908.81;;;19.63;100.00
24610;BME280;12758;47.890;11.694;2023-09-19T12:39:38;93915.19;;;19.74;100.00
24610;BME280;12758;47.890;11.694;2023-09-19T12:42:05;93921.84;;;19.66;100.00
24610;BME280;12758;47.890;11.694;2023-09-19T12:44:35;93908.41;;;19.61;100.00
24610;BME280;12758;47.890;11.694;2023-09-19T12:47:08;93908.69;;;19.48;100.00
24610;BME280;12758;47.890;11.694;2023-09-19T12:49:35;93904.75;;;19.42;100.00